Time;durP1;ratioP1;P1;durP2;ratioP2;P2;SDS_P1;SDS_P2;PMS_P1;PMS_P2;Temp;Humidity;BMP_temperature;BMP_pressure;BME280_temperature;BME280_humidity;BME280_pressure;Samples;Min_cycle;Max_cycle;Signal;HPM_P1;HPM_P2
2020/12/20 00:01:18;;;;;;;9.75;5.43;;;51.80;2227.20;;;;;;5076627;28;20080;-70
2020/12/20 00:03:45;;;;;;;10.88;6.00;;;51.90;2227.20;;;;;;5076724;28;20031;-68
2020/12/20 00:06:11;;;;;;;9.32;5.85;;;52.10;2227.20;;;;;;5075304;28;20036;-70
2020/12/20 00:08:39;;;;;;;10.35;5.53;;;52.10;2227.20;;;;;;5074091;28;20378;-70
2020/12/20 00:11:05;;;;;;;10.25;5.68;;;77.00;2227.20;;;;;;5074647;28;20030;-68
2020/12/20 00:13:32;;;;;;;8.90;5.32;;;77.10;2227.20;;;;;;5076074;28;20016;-68
2020/12/20 00:15:58;;;;;;;9.82;5.88;;;77.20;2227.20;;;;;;5075574;28;20374;-70
2020/12/20 00:18:23;;;;;;;12.00;6.82;;;77.50;2227.20;;;;;;5076035;28;20027;-69
2020/12/20 00:20:49;;;;;;;10.48;6.05;;;77.60;2227.20;;;;;;5076922;28;20035;-69
2020/12/20 00:23:15;;;;;;;12.00;6.72;;;77.60;2227.20;;;;;;5076895;28;20025;-69
2020/12/20 00:25:41;;;;;;;12.68;6.80;;;77.70;2227.20;;;;;;5076610;28;20024;-69
2020/12/20 00:28:06;;;;;;;12.10;6.38;;;77.60;2227.20;;;;;;5077063;28;20437;-68
2020/12/20 00:30:32;;;;;;;12.25;7.10;;;102.40;2227.20;;;;;;5076767;28;20021;-70
2020/12/20 00:32:58;;;;;;;11.73;6.57;;;77.70;2227.20;;;;;;5077072;28;20115;-69
2020/12/20 00:35:24;;;;;;;12.15;7.00;;;102.40;2227.20;;;;;;5075311;28;20113;-70
2020/12/20 00:37:50;;;;;;;11.13;6.68;;;102.40;2227.20;;;;;;5074685;28;20043;-68
2020/12/20 00:40:16;;;;;;;12.88;6.97;;;77.70;2227.20;;;;;;5075015;28;20056;-69
2020/12/20 00:42:41;;;;;;;14.13;7.40;;;77.70;2227.20;;;;;;5074901;28;20051;-69
2020/12/20 00:45:07;;;;;;;15.95;6.90;;;77.30;2227.20;;;;;;5074642;28;20154;-69
2020/12/20 00:47:33;;;;;;;10.68;6.25;;;77.50;2227.20;;;;;;5075224;28;20036;-71
2020/12/20 00:49:59;;;;;;;9.30;6.03;;;77.50;2227.20;;;;;;5075996;28;20024;-70
2020/12/20 00:52:25;;;;;;;7.68;4.70;;;77.70;2227.20;;;;;;5076279;28;20028;-70
2020/12/20 00:54:50;;;;;;;10.13;5.35;;;77.70;2227.20;;;;;;5076508;28;20028;-70
2020/12/20 00:57:16;;;;;;;9.32;5.60;;;102.40;2227.20;;;;;;5074801;28;20466;-70
2020/12/20 00:59:42;;;;;;;9.68;5.78;;;102.50;2227.20;;;;;;5075120;28;20070;-70
2020/12/20 01:02:08;;;;;;;9.65;5.55;;;77.70;2227.20;;;;;;5073768;28;20033;-68
2020/12/20 01:04:34;;;;;;;9.95;5.57;;;102.50;2227.20;;;;;;5074238;28;20055;-69
2020/12/20 01:07:00;;;;;;;8.27;5.20;;;102.50;2227.20;;;;;;5076179;28;20128;-70
2020/12/20 01:09:27;;;;;;;12.73;7.22;;;102.70;2227.20;;;;;;5077844;28;20029;-70
2020/12/20 01:11:57;;;;;;;15.50;6.90;;;102.70;2227.20;;;;;;5077264;28;20074;-68
2020/12/20 01:14:24;;;;;;;10.95;6.60;;;102.60;2227.20;;;;;;5077397;28;20063;-69
2020/12/20 01:16:49;;;;;;;14.88;7.20;;;102.50;2201.60;;;;;;5078219;28;20059;-70
2020/12/20 01:19:15;;;;;;;12.40;7.13;;;102.40;2227.20;;;;;;5078227;28;20075;-69
2020/12/20 01:21:41;;;;;;;11.60;6.63;;;77.60;2227.20;;;;;;5078055;28;20115;-70
2020/12/20 01:24:07;;;;;;;10.23;5.90;;;77.70;2227.20;;;;;;5078239;28;20115;-70
2020/12/20 01:26:33;;;;;;;8.98;5.15;;;77.40;2227.20;;;;;;5079290;28;20111;-70
2020/12/20 01:28:59;;;;;;;8.90;5.18;;;77.50;2227.20;;;;;;5079379;28;20071;-70
2020/12/20 01:31:25;;;;;;;10.93;5.70;;;77.60;2227.20;;;;;;5079584;28;20047;-69
2020/12/20 01:33:51;;;;;;;8.88;4.95;;;77.60;2227.20;;;;;;5079064;28;20036;-69
2020/12/20 01:36:17;;;;;;;10.57;6.50;;;77.50;2227.20;;;;;;5079436;28;20036;-69
2020/12/20 01:38:43;;;;;;;11.82;5.97;;;77.60;2227.20;;;;;;5078621;28;20050;-70
2020/12/20 01:41:10;;;;;;;9.85;6.07;;;77.70;2227.20;;;;;;5077780;28;20028;-69
2020/12/20 01:43:44;;;;;;;11.13;5.75;;;102.40;2227.20;;;;;;5078289;28;20024;-70
2020/12/20 01:46:12;;;;;;;8.95;5.57;;;102.60;2227.20;;;;;;5078194;28;20024;-69
2020/12/20 01:48:39;;;;;;;9.63;5.90;;;102.70;2227.20;;;;;;5077866;28;20221;-70
2020/12/20 01:51:06;;;;;;;9.57;5.07;;;102.70;2227.20;;;;;;5077333;28;20801;-69
2020/12/20 01:53:33;;;;;;;9.32;5.85;;;102.50;2227.20;;;;;;5075413;28;20163;-70
2020/12/20 01:56:00;;;;;;;9.02;5.38;;;102.60;2227.20;;;;;;5078479;28;20397;-70
2020/12/20 01:58:27;;;;;;;8.57;5.07;;;102.60;2227.20;;;;;;5078872;28;20059;-69
2020/12/20 02:00:54;;;;;;;11.45;5.88;;;102.70;2227.20;;;;;;5078825;28;20023;-70
2020/12/20 02:03:21;;;;;;;10.02;6.03;;;102.80;2227.20;;;;;;5079066;28;20027;-71
2020/12/20 02:05:49;;;;;;;9.55;5.47;;;102.60;2227.20;;;;;;5079381;28;20052;-69
2020/12/20 02:08:16;;;;;;;9.82;5.68;;;102.70;2227.20;;;;;;5079572;28;20058;-68
2020/12/20 02:10:42;;;;;;;10.55;6.00;;;102.90;2227.20;;;;;;5078287;28;20027;-68
2020/12/20 02:13:08;;;;;;;8.95;5.50;;;103.20;2227.20;;;;;;5079159;28;20024;-68
2020/12/20 02:15:34;;;;;;;10.68;6.30;;;103.20;2227.20;;;;;;5078245;28;20028;-71
2020/12/20 02:18:00;;;;;;;10.60;6.75;;;103.10;2227.20;;;;;;5078442;28;20032;-70
2020/12/20 02:20:25;;;;;;;9.05;5.88;;;103.10;2227.20;;;;;;5078411;28;20450;-68
2020/12/20 02:22:56;;;;;;;10.73;6.15;;;103.20;2227.20;;;;;;5078117;28;20074;-70
2020/12/20 02:25:22;;;;;;;12.52;6.65;;;102.90;2227.20;;;;;;5078963;28;20021;-69
2020/12/20 02:27:48;;;;;;;9.80;6.20;;;103.00;2227.20;;;;;;5078841;28;20408;-70
2020/12/20 02:30:13;;;;;;;11.18;5.95;;;103.00;2227.20;;;;;;5078013;28;20024;-70
2020/12/20 02:32:39;;;;;;;12.55;6.97;;;103.10;2227.20;;;;;;5078447;28;20031;-69
2020/12/20 02:35:05;;;;;;;10.15;6.10;;;103.10;2227.20;;;;;;5078554;28;20071;-71
2020/12/20 02:37:31;;;;;;;9.35;5.60;;;103.10;2227.20;;;;;;5077430;28;20040;-68
2020/12/20 02:39:58;;;;;;;11.15;6.25;;;102.90;2201.60;;;;;;5078617;28;20025;-69
2020/12/20 02:42:23;;;;;;;11.57;5.55;;;103.00;2227.20;;;;;;5078231;28;20108;-68
2020/12/20 02:44:49;;;;;;;9.75;5.30;;;103.00;2201.60;;;;;;5077607;28;20133;-69
2020/12/20 02:47:15;;;;;;;9.40;5.18;;;103.00;2201.60;;;;;;5078455;28;20028;-70
2020/12/20 02:49:41;;;;;;;8.18;4.88;;;102.70;2201.60;;;;;;5078107;28;20029;-68
2020/12/20 02:52:06;;;;;;;8.77;5.45;;;102.70;2227.20;;;;;;5077784;28;20024;-69
2020/12/20 02:54:32;;;;;;;8.10;5.13;;;102.60;2227.20;;;;;;5078304;28;20383;-70
2020/12/20 02:56:58;;;;;;;10.73;5.72;;;103.00;2227.20;;;;;;5078186;28;20086;-69
2020/12/20 02:59:24;;;;;;;8.40;4.93;;;102.90;2227.20;;;;;;5077672;28;20027;-69
2020/12/20 03:01:49;;;;;;;9.50;5.57;;;102.90;2227.20;;;;;;5077857;28;20108;-71
2020/12/20 03:04:15;;;;;;;9.45;5.80;;;102.90;2227.20;;;;;;5077212;28;20056;-70
2020/12/20 03:06:41;;;;;;;11.02;6.43;;;102.70;2227.20;;;;;;5077790;28;20086;-68
2020/12/20 03:09:07;;;;;;;9.32;5.65;;;102.70;2227.20;;;;;;5078061;28;20081;-68
2020/12/20 03:11:32;;;;;;;9.10;5.80;;;102.70;2227.20;;;;;;5077698;28;20026;-68
2020/12/20 03:13:59;;;;;;;11.90;6.70;;;102.90;2227.20;;;;;;5077366;28;20481;-70
2020/12/20 03:16:24;;;;;;;11.55;6.47;;;102.80;2227.20;;;;;;5077440;28;20044;-67
2020/12/20 03:18:50;;;;;;;13.70;7.30;;;102.80;2227.20;;;;;;5077627;28;20036;-69
2020/12/20 03:21:16;;;;;;;12.25;6.75;;;102.90;2227.20;;;;;;5077699;28;20103;-69
2020/12/20 03:23:42;;;;;;;12.75;7.80;;;102.80;2227.20;;;;;;5077813;28;20036;-68
2020/12/20 03:26:08;;;;;;;13.07;7.97;;;102.70;2227.20;;;;;;5076934;28;20020;-69
2020/12/20 03:28:34;;;;;;;15.98;8.75;;;102.80;2227.20;;;;;;5076577;28;20055;-69
2020/12/20 03:31:00;;;;;;;12.02;7.30;;;102.60;2227.20;;;;;;5077155;28;20455;-69
2020/12/20 03:33:26;;;;;;;11.38;7.35;;;102.80;2227.20;;;;;;5077104;28;20028;-72
2020/12/20 03:35:52;;;;;;;11.68;7.35;;;102.90;2227.20;;;;;;5077024;28;20024;-69
2020/12/20 03:38:18;;;;;;;12.00;7.30;;;102.90;2227.20;;;;;;5077481;28;20319;-68
2020/12/20 03:40:44;;;;;;;11.27;6.82;;;103.00;2227.20;;;;;;5077277;28;20324;-69
2020/12/20 03:43:09;;;;;;;12.38;7.28;;;103.10;2227.20;;;;;;5077580;28;20082;-70
2020/12/20 03:45:35;;;;;;;15.50;9.05;;;102.90;2227.20;;;;;;5077491;28;20388;-68
2020/12/20 03:48:01;;;;;;;12.48;7.53;;;102.90;2227.20;;;;;;5076922;28;20025;-71
2020/12/20 03:50:27;;;;;;;13.85;7.57;;;102.90;2227.20;;;;;;5077188;28;20028;-70
2020/12/20 03:52:52;;;;;;;12.65;7.32;;;102.90;2227.20;;;;;;5077151;28;20024;-68
2020/12/20 03:55:18;;;;;;;13.45;7.32;;;103.00;2227.20;;;;;;5077150;28;20105;-69
2020/12/20 03:57:44;;;;;;;11.23;7.40;;;103.20;2227.20;;;;;;5077035;28;20036;-69
2020/12/20 04:00:10;;;;;;;12.93;7.68;;;103.10;2227.20;;;;;;5076798;28;20055;-70
2020/12/20 04:02:35;;;;;;;13.38;7.85;;;102.90;2227.20;;;;;;5076576;28;20332;-68
2020/12/20 04:05:01;;;;;;;13.13;7.80;;;102.80;2227.20;;;;;;5077277;28;20127;-67
2020/12/20 04:07:27;;;;;;;12.45;7.63;;;102.80;2227.20;;;;;;5076980;28;20036;-72
2020/12/20 04:09:53;;;;;;;13.73;7.28;;;102.80;2227.20;;;;;;5077116;28;20021;-70
2020/12/20 04:12:18;;;;;;;14.32;8.23;;;102.80;2227.20;;;;;;5076716;28;20031;-69
2020/12/20 04:14:45;;;;;;;13.23;8.07;;;102.70;2227.20;;;;;;5076706;28;20054;-70
2020/12/20 04:17:10;;;;;;;15.60;8.13;;;102.60;2227.20;;;;;;5076821;28;20033;-70
2020/12/20 04:19:36;;;;;;;12.23;7.40;;;102.80;2227.20;;;;;;5076644;28;20028;-69
2020/12/20 04:22:02;;;;;;;14.35;8.65;;;102.80;2227.20;;;;;;5076645;28;20020;-69
2020/12/20 04:24:28;;;;;;;14.57;8.32;;;102.60;2227.20;;;;;;5076573;28;20439;-70
2020/12/20 04:26:53;;;;;;;15.07;8.38;;;102.60;2227.20;;;;;;5077087;28;20052;-69
2020/12/20 04:29:19;;;;;;;13.27;8.25;;;102.80;2227.20;;;;;;5076307;28;20032;-70
2020/12/20 04:31:45;;;;;;;13.57;7.85;;;102.60;2227.20;;;;;;5076501;28;20025;-69
2020/12/20 04:34:11;;;;;;;16.65;8.50;;;102.90;2227.20;;;;;;5077087;28;20028;-70
2020/12/20 04:36:36;;;;;;;14.65;8.32;;;102.70;2227.20;;;;;;5076406;28;20025;-69
2020/12/20 04:39:03;;;;;;;14.73;8.57;;;102.60;2227.20;;;;;;5077032;28;20033;-70
2020/12/20 04:41:29;;;;;;;16.33;8.25;;;102.50;2227.20;;;;;;5078099;28;20024;-68
2020/12/20 04:43:55;;;;;;;15.02;8.27;;;102.70;2227.20;;;;;;5080292;28;20039;-69
2020/12/20 04:46:21;;;;;;;16.27;9.00;;;103.00;2227.20;;;;;;5080512;28;20066;-70
2020/12/20 04:48:47;;;;;;;13.82;8.32;;;103.20;2227.20;;;;;;5080391;28;20028;-69
2020/12/20 04:51:16;;;;;;;15.75;9.13;;;103.20;2227.20;;;;;;5080149;28;20031;-70
2020/12/20 04:53:43;;;;;;;14.20;8.35;;;103.20;2227.20;;;;;;5080666;28;20427;-70
2020/12/20 04:56:11;;;;;;;12.95;8.63;;;103.10;2227.20;;;;;;5079930;28;20074;-70
2020/12/20 04:58:38;;;;;;;14.40;7.78;;;102.90;2227.20;;;;;;5079999;28;20031;-71
2020/12/20 05:01:06;;;;;;;13.10;8.20;;;102.60;2227.20;;;;;;5080236;28;20396;-69
2020/12/20 05:03:32;;;;;;;16.23;9.03;;;102.80;2227.20;;;;;;5079913;28;20469;-69
2020/12/20 05:05:58;;;;;;;16.15;8.43;;;102.70;2227.20;;;;;;5080287;28;20273;-70
2020/12/20 05:08:24;;;;;;;16.55;8.32;;;102.80;2227.20;;;;;;5080365;28;20031;-71
2020/12/20 05:10:52;;;;;;;16.15;9.00;;;102.90;2227.20;;;;;;5079070;28;20107;-69
2020/12/20 05:13:20;;;;;;;12.07;7.18;;;102.80;2227.20;;;;;;5080001;28;20028;-68
2020/12/20 05:15:47;;;;;;;13.68;7.80;;;102.70;2227.20;;;;;;5079966;28;20025;-69
2020/12/20 05:18:17;;;;;;;13.80;7.95;;;102.90;2227.20;;;;;;5079870;28;20170;-71
2020/12/20 05:20:47;;;;;;;13.95;7.50;;;102.80;2227.20;;;;;;5080123;28;20107;-69
2020/12/20 05:23:14;;;;;;;14.10;8.18;;;102.80;2227.20;;;;;;5080117;28;20031;-68
2020/12/20 05:25:41;;;;;;;15.77;8.13;;;102.80;2227.20;;;;;;5079500;28;20029;-70
2020/12/20 05:28:23;;;;;;;15.40;8.23;;;103.00;2227.20;;;;;;5079756;28;20443;-68
2020/12/20 05:30:49;;;;;;;13.63;6.95;;;102.80;2227.20;;;;;;5079401;28;20021;-70
2020/12/20 05:33:30;;;;;;;12.57;7.63;;;102.90;2227.20;;;;;;5079318;28;20036;-70
2020/12/20 05:36:04;;;;;;;14.82;8.18;;;102.50;2227.20;;;;;;5079300;28;20428;-69
2020/12/20 05:38:31;;;;;;;14.95;8.70;;;102.70;2227.20;;;;;;5079504;28;20036;-69
2020/12/20 05:40:57;;;;;;;16.40;9.63;;;102.60;2227.20;;;;;;5079707;28;20031;-69
2020/12/20 05:43:28;;;;;;;79.68;47.03;;;102.50;2227.20;;;;;;5079749;28;20021;-70
2020/12/20 05:45:55;;;;;;;19.13;11.02;;;102.80;2227.20;;;;;;5078893;28;20016;-69
2020/12/20 05:48:26;;;;;;;14.32;7.78;;;102.90;2227.20;;;;;;5079393;28;20032;-69
2020/12/20 05:50:55;;;;;;;12.82;8.02;;;102.80;2227.20;;;;;;5079630;28;20052;-72
2020/12/20 05:53:31;;;;;;;11.32;6.20;;;102.90;2227.20;;;;;;5078482;28;20056;-70
2020/12/20 05:56:04;;;;;;;10.77;6.15;;;103.00;2227.20;;;;;;5079544;28;20119;-69
2020/12/20 05:58:32;;;;;;;10.35;6.20;;;102.80;2227.20;;;;;;5079213;28;20028;-70
2020/12/20 06:00:59;;;;;;;11.23;6.60;;;103.00;2201.60;;;;;;5078433;28;20355;-69
2020/12/20 06:03:25;;;;;;;10.50;6.63;;;103.00;2227.20;;;;;;5079148;28;20027;-71
2020/12/20 06:05:51;;;;;;;16.20;9.77;;;102.90;2227.20;;;;;;5078423;28;20471;-68
2020/12/20 06:08:22;;;;;;;20.10;13.02;;;102.90;2227.20;;;;;;5077517;28;20036;-69
2020/12/20 06:10:50;;;;;;;16.55;10.07;;;102.70;2227.20;;;;;;5076976;28;20034;-70
2020/12/20 06:13:18;;;;;;;16.33;9.55;;;102.70;2227.20;;;;;;5077508;28;20051;-69
2020/12/20 06:15:45;;;;;;;14.95;9.57;;;102.50;2227.20;;;;;;5077215;28;20029;-69
2020/12/20 06:18:14;;;;;;;19.55;9.73;;;102.60;2227.20;;;;;;5076742;28;20044;-69
2020/12/20 06:20:56;;;;;;;17.15;9.65;;;102.80;2227.20;;;;;;5077107;28;20335;-70
2020/12/20 06:23:26;;;;;;;15.48;9.02;;;102.50;2227.20;;;;;;5078382;28;20119;-69
2020/12/20 06:25:54;;;;;;;16.13;10.23;;;102.50;2227.20;;;;;;5076708;28;20047;-69
2020/12/20 06:28:31;;;;;;;15.77;9.25;;;102.70;2227.20;;;;;;5076469;28;20029;-70
2020/12/20 06:30:57;;;;;;;16.60;9.05;;;102.70;2227.20;;;;;;5076819;28;20032;-71
2020/12/20 06:33:38;;;;;;;13.10;8.35;;;103.00;2227.20;;;;;;5076792;28;20384;-68
2020/12/20 06:36:12;;;;;;;11.93;8.25;;;102.90;2227.20;;;;;;5076713;28;20408;-69
2020/12/20 06:38:38;;;;;;;13.40;7.80;;;103.00;2227.20;;;;;;5077199;28;20442;-69
2020/12/20 06:41:04;;;;;;;12.02;7.97;;;103.00;2227.20;;;;;;5077997;28;20028;-71
2020/12/20 06:43:36;;;;;;;18.83;11.35;;;102.90;2227.20;;;;;;5078300;28;20025;-71
2020/12/20 06:46:04;;;;;;;26.58;14.00;;;102.70;2227.20;;;;;;5078471;28;20024;-69
2020/12/20 06:48:37;;;;;;;40.67;21.58;;;102.90;2227.20;;;;;;5078190;28;20428;-68
2020/12/20 06:51:07;;;;;;;14.90;9.35;;;102.80;2227.20;;;;;;5078442;28;20055;-70
2020/12/20 06:53:45;;;;;;;15.30;9.88;;;102.70;2227.20;;;;;;5078077;28;20024;-70
2020/12/20 06:56:29;;;;;;;25.65;13.77;;;102.90;2227.20;;;;;;5059524;28;20029;-70
2020/12/20 06:58:55;;;;;;;70.32;35.40;;;103.00;2227.20;;;;;;5078310;28;20362;-70
2020/12/20 07:01:38;;;;;;;35.50;20.75;;;103.10;2227.20;;;;;;5077921;28;20032;-68
2020/12/20 07:04:15;;;;;;;56.08;33.20;;;128.00;2252.80;;;;;;5076905;28;20079;-70
2020/12/20 07:06:41;;;;;;;135.98;75.80;;;128.00;2252.80;;;;;;5077286;28;20436;-69
2020/12/20 07:09:08;;;;;;;242.85;126.20;;;128.10;2252.80;;;;;;5077764;28;20016;-68
2020/12/20 07:11:42;;;;;;;211.75;117.05;;;128.20;2252.80;;;;;;5077279;28;20048;-73
2020/12/20 07:14:22;;;;;;;44.25;31.90;;;103.30;2227.20;;;;;;5077939;28;20027;-68
2020/12/20 07:16:50;;;;;;;30.17;18.02;;;103.30;2227.20;;;;;;5077248;28;20032;-69
2020/12/20 07:19:26;;;;;;;286.67;159.75;;;128.10;2252.80;;;;;;5077888;28;20020;-68
2020/12/20 07:21:58;;;;;;;124.97;74.50;;;128.10;2252.80;;;;;;5077330;28;20027;-69
2020/12/20 07:24:33;;;;;;;60.67;37.40;;;128.00;2252.80;;;;;;5077527;28;20024;-69
2020/12/20 07:27:02;;;;;;;143.27;82.75;;;128.10;2201.60;;;;;;5077760;28;20020;-70
2020/12/20 07:29:33;;;;;;;88.03;49.90;;;128.00;2201.60;;;;;;5077748;28;20082;-69
2020/12/20 07:32:01;;;;;;;46.25;28.23;;;103.10;2201.60;;;;;;5076913;28;20046;-71
2020/12/20 07:34:27;;;;;;;21.27;15.63;;;102.70;2227.20;;;;;;5077438;28;20020;-70
2020/12/20 07:36:54;;;;;;;22.42;16.70;;;102.70;2227.20;;;;;;5077008;28;20028;-69
2020/12/20 07:39:20;;;;;;;54.10;44.17;;;102.60;2227.20;;;;;;5077344;28;20032;-71
2020/12/20 07:41:46;;;;;;;24.48;19.30;;;102.70;2227.20;;;;;;5077586;28;20078;-69
2020/12/20 07:44:12;;;;;;;45.63;40.28;;;103.00;2201.60;;;;;;5077294;28;20032;-70
2020/12/20 07:46:39;;;;;;;25.83;20.45;;;102.90;2176.00;;;;;;5076676;28;20077;-70
2020/12/20 07:49:13;;;;;;;28.02;22.48;;;102.70;2201.60;;;;;;5077075;28;20404;-69
2020/12/20 07:51:40;;;;;;;14.23;10.13;;;102.50;2227.20;;;;;;5077017;28;20021;-71
2020/12/20 07:54:11;;;;;;;14.65;10.35;;;102.50;2227.20;;;;;;5077187;28;20021;-69
2020/12/20 07:56:39;;;;;;;76.72;37.22;;;102.50;2201.60;;;;;;5073395;28;20114;-71
2020/12/20 07:59:18;;;;;;;55.15;28.60;;;102.60;2201.60;;;;;;5075875;28;20028;-69
2020/12/20 08:01:47;;;;;;;16.65;10.60;;;102.50;2227.20;;;;;;5074799;28;20031;-69
2020/12/20 08:04:18;;;;;;;14.27;9.57;;;102.40;2227.20;;;;;;5060121;28;20079;-72
2020/12/20 08:06:48;;;;;;;13.57;9.50;;;77.70;2227.20;;;;;;5091751;28;20057;-69
2020/12/20 08:09:18;;;;;;;12.98;8.63;;;102.40;2227.20;;;;;;5091618;28;20046;-69
2020/12/20 08:11:48;;;;;;;17.45;12.55;;;102.50;2227.20;;;;;;5092547;28;20032;-71
2020/12/20 08:14:17;;;;;;;21.15;15.30;;;102.40;2227.20;;;;;;5090400;28;20016;-70
2020/12/20 08:16:45;;;;;;;21.75;15.20;;;77.70;2227.20;;;;;;5080091;28;20119;-69
2020/12/20 08:19:28;;;;;;;15.13;9.68;;;77.60;2227.20;;;;;;5080423;28;20036;-70
2020/12/20 08:22:01;;;;;;;15.57;10.77;;;77.60;2227.20;;;;;;5080222;28;20020;-68
2020/12/20 08:24:29;;;;;;;18.42;12.63;;;77.60;2227.20;;;;;;5080843;28;20035;-67
2020/12/20 08:26:57;;;;;;;12.88;8.23;;;77.60;2227.20;;;;;;5079413;28;20025;-71
2020/12/20 08:29:26;;;;;;;13.27;7.75;;;77.60;2227.20;;;;;;5080618;28;20416;-72
2020/12/20 08:31:53;;;;;;;19.63;12.93;;;77.70;2227.20;;;;;;5079969;28;20335;-71
2020/12/20 08:34:25;;;;;;;23.65;15.98;;;77.70;2227.20;;;;;;5080133;28;20056;-70
2020/12/20 08:37:00;;;;;;;33.33;18.90;;;77.70;2227.20;;;;;;5078848;28;20025;-70
2020/12/20 08:39:28;;;;;;;53.05;25.10;;;102.60;2227.20;;;;;;5079283;28;20029;-70
2020/12/20 08:42:04;;;;;;;33.17;17.52;;;102.50;2227.20;;;;;;5078109;28;20020;-70
2020/12/20 08:44:32;;;;;;;68.72;33.05;;;102.50;2227.20;;;;;;5079280;28;20017;-71
2020/12/20 08:47:24;;;;;;;20.83;12.55;;;102.80;2227.20;;;;;;5079238;28;20027;-70
2020/12/20 08:50:01;;;;;;;17.25;11.13;;;103.30;2227.20;;;;;;5074944;28;20123;-71
2020/12/20 08:52:30;;;;;;;19.35;12.32;;;128.20;2227.20;;;;;;5078577;28;20016;-70
2020/12/20 08:55:01;;;;;;;21.80;14.52;;;128.20;2252.80;;;;;;5079085;28;20035;-72
2020/12/20 08:57:32;;;;;;;64.90;36.47;;;128.30;2252.80;;;;;;5078442;28;20032;-71
2020/12/20 09:00:14;;;;;;;63.58;33.33;;;128.60;2201.60;;;;;;5079817;28;20025;-69
2020/12/20 09:02:41;;;;;;;50.13;26.98;;;128.50;2201.60;;;;;;5077633;28;20041;-69
2020/12/20 09:05:17;;;;;;;83.70;49.30;;;128.90;2201.60;;;;;;5078128;28;20106;-71
2020/12/20 09:07:47;;;;;;;34.42;20.73;;;128.90;2201.60;;;;;;5079548;28;20028;-70
2020/12/20 09:10:15;;;;;;;62.33;28.88;;;153.60;2201.60;;;;;;5078161;28;20094;-72
2020/12/20 09:12:57;;;;;;;13.30;9.15;;;153.80;2201.60;;;;;;5079532;28;20028;-69
2020/12/20 09:15:35;;;;;;;19.40;10.07;;;153.90;2201.60;;;;;;5078681;28;20432;-70
2020/12/20 09:18:16;;;;;;;16.23;9.48;;;154.00;2176.00;;;;;;5076835;28;20073;-69
2020/12/20 09:20:46;;;;;;;12.43;7.35;;;154.20;2176.00;;;;;;5079628;28;20032;-70
2020/12/20 09:23:26;;;;;;;11.98;7.55;;;154.10;2176.00;;;;;;5078372;28;20035;-69
2020/12/20 09:26:00;;;;;;;11.52;7.30;;;154.10;2150.40;;;;;;5077411;28;20024;-70
2020/12/20 09:28:27;;;;;;;9.50;6.38;;;153.90;2176.00;;;;;;5075102;28;20024;-68
2020/12/20 09:30:57;;;;;;;9.23;5.72;;;153.90;2176.00;;;;;;5076979;28;20017;-68
2020/12/20 09:33:32;;;;;;;11.50;6.47;;;154.00;2176.00;;;;;;5073150;28;20051;-69
2020/12/20 09:36:15;;;;;;;9.68;5.32;;;154.20;2176.00;;;;;;5077306;28;20020;-68
2020/12/20 09:38:48;;;;;;;9.40;5.28;;;153.90;2150.40;;;;;;5078527;28;20457;-69
2020/12/20 09:41:26;;;;;;;10.18;6.25;;;153.80;2201.60;;;;;;5078400;28;20043;-68
2020/12/20 09:43:53;;;;;;;10.48;6.68;;;154.00;2176.00;;;;;;5077471;28;20548;-70
2020/12/20 09:46:24;;;;;;;10.57;6.82;;;154.10;2176.00;;;;;;5077677;28;20020;-70
2020/12/20 09:48:52;;;;;;;21.92;11.75;;;154.20;2176.00;;;;;;5076727;28;20447;-69
2020/12/20 09:51:19;;;;;;;13.55;9.35;;;154.30;2124.80;;;;;;5076255;28;20032;-69
2020/12/20 09:53:45;;;;;;;10.55;7.10;;;154.30;2150.40;;;;;;5077536;28;20115;-68
2020/12/20 09:56:12;;;;;;;22.83;17.95;;;154.40;2099.20;;;;;;5077379;28;20407;-67
2020/12/20 09:58:39;;;;;;;8.65;5.22;;;179.20;2124.80;;;;;;5078366;28;20060;-70
2020/12/20 10:01:05;;;;;;;9.45;6.20;;;154.50;2099.20;;;;;;5077729;28;20058;-68
2020/12/20 10:03:31;;;;;;;8.43;5.65;;;154.50;2099.20;;;;;;5076087;28;20419;-71
2020/12/20 10:05:58;;;;;;;8.05;5.45;;;154.30;2099.20;;;;;;5076449;28;20051;-68
2020/12/20 10:08:26;;;;;;;22.08;12.18;;;154.30;2124.80;;;;;;5077329;28;20428;-69
2020/12/20 10:10:53;;;;;;;10.55;6.63;;;179.20;2099.20;;;;;;5077601;28;20070;-70
2020/12/20 10:13:19;;;;;;;11.50;6.93;;;179.20;2099.20;;;;;;5077910;28;20320;-70
2020/12/20 10:15:45;;;;;;;13.63;8.23;;;179.30;2099.20;;;;;;5076734;28;20111;-69
2020/12/20 10:18:12;;;;;;;63.17;22.30;;;179.40;2073.60;;;;;;5074701;28;20147;-68
2020/12/20 10:20:38;;;;;;;16.65;9.88;;;179.40;2099.20;;;;;;5077107;28;20029;-70
2020/12/20 10:23:04;;;;;;;16.05;10.75;;;179.40;2073.60;;;;;;5078585;28;20047;-68
2020/12/20 10:25:30;;;;;;;15.75;9.40;;;179.30;2073.60;;;;;;5077532;28;20061;-68
2020/12/20 10:27:56;;;;;;;14.30;8.95;;;179.40;2073.60;;;;;;5077251;28;20107;-67
2020/12/20 10:30:22;;;;;;;18.25;10.52;;;179.20;2073.60;;;;;;5077284;28;20025;-69
2020/12/20 10:32:49;;;;;;;16.10;6.45;;;154.50;2073.60;;;;;;5078069;28;20032;-70
2020/12/20 10:35:15;;;;;;;10.07;6.60;;;179.20;2073.60;;;;;;5078651;28;20021;-70
2020/12/20 10:37:41;;;;;;;9.07;5.70;;;179.30;2073.60;;;;;;5077867;28;20072;-69
2020/12/20 10:40:07;;;;;;;9.93;6.15;;;179.50;2073.60;;;;;;5077337;28;20110;-69
2020/12/20 10:42:33;;;;;;;8.85;6.03;;;179.30;2073.60;;;;;;5078561;28;20024;-68
2020/12/20 10:44:59;;;;;;;14.23;8.40;;;179.50;2048.00;;;;;;5078139;28;20023;-69
2020/12/20 10:47:25;;;;;;;8.65;6.65;;;179.60;2048.00;;;;;;5077810;28;20032;-68
2020/12/20 10:49:51;;;;;;;9.68;6.15;;;179.50;2048.00;;;;;;5078418;28;20048;-68
2020/12/20 10:52:17;;;;;;;9.40;5.75;;;179.70;2048.00;;;;;;5078042;28;20028;-67
2020/12/20 10:54:44;;;;;;;9.05;6.10;;;180.00;2022.40;;;;;;5077605;28;20362;-68
2020/12/20 10:57:10;;;;;;;12.35;6.38;;;179.90;1996.80;;;;;;5077928;28;20469;-68
2020/12/20 10:59:36;;;;;;;13.05;7.38;;;179.80;1996.80;;;;;;5077618;28;20028;-68
2020/12/20 11:02:02;;;;;;;21.13;13.40;;;180.10;1996.80;;;;;;5077200;28;20059;-68
2020/12/20 11:04:28;;;;;;;17.77;11.93;;;205.00;1945.60;;;;;;5078015;28;20110;-68
2020/12/20 11:06:58;;;;;;;8.80;6.10;;;205.20;1945.60;;;;;;5078124;28;20415;-68
2020/12/20 11:09:25;;;;;;;11.73;7.90;;;205.20;1920.00;;;;;;5077221;28;20024;-69
2020/12/20 11:11:51;;;;;;;17.42;8.52;;;205.50;1920.00;;;;;;5077362;28;20119;-68
2020/12/20 11:14:18;;;;;;;11.88;7.07;;;205.60;1894.40;;;;;;5077645;28;20036;-68
2020/12/20 11:16:43;;;;;;;12.88;6.45;;;205.40;1894.40;;;;;;5077025;28;20173;-69
2020/12/20 11:19:09;;;;;;;11.43;6.30;;;205.50;1894.40;;;;;;5077832;28;20111;-69
2020/12/20 11:21:36;;;;;;;11.95;7.00;;;205.50;1894.40;;;;;;5077504;28;20111;-69
2020/12/20 11:24:03;;;;;;;9.63;5.80;;;230.40;1843.20;;;;;;5076601;28;20029;-69
2020/12/20 11:26:29;;;;;;;10.43;6.63;;;230.50;1843.20;;;;;;5077761;28;20016;-70
2020/12/20 11:28:56;;;;;;;20.40;9.18;;;230.70;1792.00;;;;;;5077458;28;20111;-68
2020/12/20 11:31:23;;;;;;;19.92;12.57;;;231.20;1766.40;;;;;;5077257;28;20048;-68
2020/12/20 11:33:50;;;;;;;11.15;6.50;;;256.00;1766.40;;;;;;5076843;28;20020;-70
2020/12/20 11:36:18;;;;;;;9.20;6.00;;;256.40;1715.20;;;;;;5076533;28;20374;-70
2020/12/20 11:38:45;;;;;;;16.27;9.27;;;256.60;1689.60;;;;;;5077138;28;20031;-68
2020/12/20 11:41:11;;;;;;;7.88;5.55;;;256.80;1689.60;;;;;;5076525;28;20058;-70
2020/12/20 11:43:36;;;;;;;10.00;6.30;;;256.90;1664.00;;;;;;5077012;28;20025;-69
2020/12/20 11:46:03;;;;;;;8.88;6.00;;;281.90;1664.00;;;;;;5076403;28;20031;-70
2020/12/20 11:48:29;;;;;;;16.42;10.95;;;281.90;1638.40;;;;;;5077078;28;20074;-69
2020/12/20 11:50:55;;;;;;;9.07;6.07;;;282.00;1638.40;;;;;;5076941;28;20354;-68
2020/12/20 11:53:21;;;;;;;15.98;11.23;;;282.50;1587.20;;;;;;5076450;28;20094;-68
2020/12/20 11:55:47;;;;;;;10.52;6.78;;;282.40;1587.20;;;;;;5077406;28;20025;-69
2020/12/20 11:58:16;;;;;;;10.50;6.95;;;307.20;1587.20;;;;;;5077156;28;20111;-68
2020/12/20 12:00:43;;;;;;;;;;;307.50;1561.60;;;;;;5076832;28;20024;-68
2020/12/20 12:03:09;;;;;;;29.10;19.83;;;307.40;1561.60;;;;;;5058584;28;20270;-69
2020/12/20 12:05:38;;;;;;;15.75;9.88;;;307.50;1561.60;;;;;;5076216;28;20044;-67
2020/12/20 12:08:07;;;;;;;11.07;7.38;;;307.60;1536.00;;;;;;5068405;28;20032;-66
2020/12/20 12:10:34;;;;;;;19.73;6.35;;;307.60;1536.00;;;;;;5049295;28;20029;-66
2020/12/20 12:13:01;;;;;;;12.90;6.80;;;307.90;1510.40;;;;;;5051839;28;20408;-68